Flight Track Log - Related Links

Times and Time Zones

All times are in EDT time to prevent confusion due to time zone crossing. See the N1803M flight status page for this flight to view local times or setup timezone preferences in your user account.

Time Position Orientation Groundspeed Altitude Reporting Facility
EDT Latitude Longitude Course Direction KTS MPH feet Rate Location/Type
Thu 08:08:53 PM 39.9833 -86.2000 90° East 74 85 2,600  Level Indianapolis TRACON
Thu 08:09:47 PM 39.9833 -86.1833 90° East 73 84 3,000 470 Climbing Indianapolis TRACON
Thu 08:10:48 PM 39.9667 -86.1500 123° Southeast 74 85 3,500 446 Climbing Indianapolis TRACON
Thu 08:11:48 PM 39.9667 -86.1333 90° East 71 82 3,900 439 Climbing Indianapolis TRACON
Thu 08:12:10 PM 39.9597 -86.1242 135° Southeast 72 83 4,100 429 Climbing Indianapolis Center
Thu 08:13:12 PM 39.9506 -86.1008 117° Southeast 72 83 4,500 387 Climbing Indianapolis Center
Thu 08:14:14 PM 39.9408 -86.0753 116° Southeast 75 86 4,900 244 Climbing Indianapolis Center
Thu 08:15:15 PM 39.9294 -86.0461 117° Southeast 82 94 5,000  Climbing Indianapolis Center
Thu 08:16:17 PM 39.9158 -86.0133 118° Southeast 93 107 4,900 -49 Descending Indianapolis Center
Thu 08:17:18 PM 39.9025 -85.9800 118° Southeast 99 114 4,900 49 Level Indianapolis Center
Thu 08:18:20 PM 39.8861 -85.9400 118° Southeast 102 117 5,000 49 Climbing Indianapolis Center
Thu 08:19:21 PM 39.8728 -85.9053 117° Southeast 105 121 5,000  Level Indianapolis Center
Thu 08:20:23 PM 39.8597 -85.8703 116° Southeast 107 123 5,000  Level Indianapolis Center
Thu 08:21:25 PM 39.8483 -85.8339 112° Southeast 108 124 5,000  Level Indianapolis Center
Thu 08:22:26 PM 39.8378 -85.7975 111° Southeast 108 124 5,000  Level Indianapolis Center
Thu 08:23:28 PM 39.8269 -85.7614 111° Southeast 108 124 5,000  Level Indianapolis Center
Thu 08:24:29 PM 39.8156 -85.7258 113° Southeast 107 123 5,000  Level Indianapolis Center
Thu 08:25:31 PM 39.8053 -85.6883 110° East 108 124 5,000  Level Indianapolis Center
Thu 08:26:32 PM 39.7908 -85.6461 114° Southeast 108 124 5,000  Level Indianapolis Center
Thu 08:27:34 PM 39.7775 -85.6119 117° Southeast 107 123 5,000  Level Indianapolis Center
Thu 08:28:35 PM 39.7650 -85.5769 115° Southeast 107 123 5,000  Level Indianapolis Center
Thu 08:29:37 PM 39.7517 -85.5431 117° Southeast 106 122 5,000  Level Indianapolis Center
Thu 08:30:39 PM 39.7397 -85.5083 114° Southeast 106 122 5,000  Level Indianapolis Center
Thu 08:31:40 PM 39.7281 -85.4731 113° Southeast 107 123 5,000  Level Indianapolis Center
Thu 08:32:42 PM 39.7161 -85.4375 114° Southeast 107 123 5,000  Level Indianapolis Center
Thu 08:33:43 PM 39.7008 -85.3964 116° Southeast 106 122 5,000 64 Level Indianapolis Center
Thu 08:34:16 PM 39.6939 -85.3789 117° Southeast 106 122 5,100  Climbing Indianapolis Center
Thu 08:34:45 PM 39.6892 -85.3625 111° Southeast 105 121 5,000  Descending Indianapolis Center
Thu 08:35:23 PM 39.6806 -85.3417 118° Southeast 103 119 5,100  Climbing Indianapolis Center
Thu 08:35:47 PM 39.6761 -85.3292 115° Southeast 104 120 5,000 -141 Descending Indianapolis Center
Thu 08:36:48 PM 39.6650 -85.2950 113° Southeast 104 120 4,900 -49 Descending Indianapolis Center
Thu 08:37:50 PM 39.6519 -85.2608 116° Southeast 105 121 4,900 -98 Level Indianapolis Center
Thu 08:38:51 PM 39.6383 -85.2275 118° Southeast 104 120 4,700 -293 Descending Indianapolis Center
Thu 08:39:53 PM 39.6256 -85.1914 115° Southeast 109 125 4,300 -341 Descending Indianapolis Center
Thu 08:40:54 PM 39.6106 -85.1478 114° Southeast 110 127 4,000 -146 Descending Indianapolis Center
Thu 08:41:56 PM 39.5986 -85.1147 115° Southeast 107 123 4,000  Level Indianapolis Center
Thu 08:42:57 PM 39.5867 -85.0822 115° Southeast 103 119 4,000  Level Indianapolis Center
Thu 08:43:59 PM 39.5747 -85.0494 115° Southeast 102 117 4,000  Level Indianapolis Center
Thu 08:45:00 PM 39.5608 -85.0169 119° Southeast 102 117 4,000  Level Indianapolis Center
Thu 08:46:02 PM 39.5492 -84.9844 115° Southeast 101 116 4,000  Level Indianapolis Center
Thu 08:47:03 PM 39.5369 -84.9514 116° Southeast 101 116 4,000 -146 Level Indianapolis Center
Thu 08:48:05 PM 39.5244 -84.9186 116° Southeast 102 117 3,700 -293 Descending Indianapolis Center
Thu 08:49:06 PM 39.5086 -84.8767 116° Southeast 108 124 3,400 -341 Descending Indianapolis Center
Thu 08:50:08 PM 39.4956 -84.8397 115° Southeast 110 127 3,000 -195 Descending Indianapolis Center
Thu 08:51:09 PM 39.4828 -84.8069 117° Southeast 110 127 3,000  Level Indianapolis Center
Thu 08:52:23 PM 39.4647 -84.7653 119° Southeast 136 157 3,000  Level Indianapolis Center

Login

Don't have an account? Register now (free) for customized features, flight alerts, and more!